sensor_id;sensor_type;location;lat;lon;timestamp;temperature;humidity
23550;DHT22;11953;49.010;8.608;2023-06-10T00:00:02;24.00;99.00
23550;DHT22;11953;49.010;8.608;2023-06-10T00:02:56;24.10;99.10
23550;DHT22;11953;49.010;8.608;2023-06-10T00:05:45;24.00;99.10
23550;DHT22;11953;49.010;8.608;2023-06-10T00:08:33;24.00;99.10
23550;DHT22;11953;49.010;8.608;2023-06-10T00:11:20;24.00;99.20
23550;DHT22;11953;49.010;8.608;2023-06-10T00:14:08;24.00;99.20
23550;DHT22;11953;49.010;8.608;2023-06-10T00:16:54;24.00;99.20
23550;DHT22;11953;49.010;8.608;2023-06-10T00:19:42;24.00;99.20
23550;DHT22;11953;49.010;8.608;2023-06-10T00:22:32;24.00;99.20
23550;DHT22;11953;49.010;8.608;2023-06-10T00:25:20;24.00;99.10
23550;DHT22;11953;49.010;8.608;2023-06-10T00:28:06;24.00;99.20
23550;DHT22;11953;49.010;8.608;2023-06-10T00:30:53;24.00;99.20
23550;DHT22;11953;49.010;8.608;2023-06-10T00:33:40;24.00;99.10
23550;DHT22;11953;49.010;8.608;2023-06-10T00:36:27;24.00;99.20
23550;DHT22;11953;49.010;8.608;2023-06-10T00:39:13;23.90;99.20
23550;DHT22;11953;49.010;8.608;2023-06-10T00:42:02;24.00;99.20
23550;DHT22;11953;49.010;8.608;2023-06-10T00:44:53;24.00;99.20
23550;DHT22;11953;49.010;8.608;2023-06-10T00:47:40;23.90;99.20
23550;DHT22;11953;49.010;8.608;2023-06-10T00:50:27;23.90;99.20
23550;DHT22;11953;49.010;8.608;2023-06-10T00:53:14;23.90;99.20
23550;DHT22;11953;49.010;8.608;2023-06-10T00:56:01;23.90;99.20
23550;DHT22;11953;49.010;8.608;2023-06-10T00:58:49;23.90;99.20
23550;DHT22;11953;49.010;8.608;2023-06-10T01:01:36;23.90;99.20
23550;DHT22;11953;49.010;8.608;2023-06-10T01:04:25;23.90;99.20
23550;DHT22;11953;49.010;8.608;2023-06-10T01:07:17;23.90;99.20
23550;DHT22;11953;49.010;8.608;2023-06-10T01:10:08;23.90;99.20
23550;DHT22;11953;49.010;8.608;2023-06-10T01:12:59;23.90;99.30
23550;DHT22;11953;49.010;8.608;2023-06-10T01:15:50;23.90;99.20
23550;DHT22;11953;49.010;8.608;2023-06-10T01:18:37;23.90;99.20
23550;DHT22;11953;49.010;8.608;2023-06-10T01:21:28;23.90;99.20
23550;DHT22;11953;49.010;8.608;2023-06-10T01:24:20;23.90;99.20
23550;DHT22;11953;49.010;8.608;2023-06-10T01:27:12;23.90;99.20
23550;DHT22;11953;49.010;8.608;2023-06-10T01:30:04;23.90;99.20
23550;DHT22;11953;49.010;8.608;2023-06-10T01:32:53;23.90;99.30
23550;DHT22;11953;49.010;8.608;2023-06-10T01:35:41;23.90;99.20
23550;DHT22;11953;49.010;8.608;2023-06-10T01:38:35;23.90;99.30
23550;DHT22;11953;49.010;8.608;2023-06-10T01:41:23;23.80;99.30
23550;DHT22;11953;49.010;8.608;2023-06-10T01:44:11;23.90;99.40
23550;DHT22;11953;49.010;8.608;2023-06-10T01:46:58;23.90;99.30
23550;DHT22;11953;49.010;8.608;2023-06-10T01:49:45;23.80;99.20
23550;DHT22;11953;49.010;8.608;2023-06-10T01:52:32;23.80;99.30
23550;DHT22;11953;49.010;8.608;2023-06-10T01:55:20;23.80;99.30
23550;DHT22;11953;49.010;8.608;2023-06-10T01:58:07;23.80;99.30
23550;DHT22;11953;49.010;8.608;2023-06-10T02:00:54;23.80;99.30
23550;DHT22;11953;49.010;8.608;2023-06-10T02:03:41;23.80;99.30
23550;DHT22;11953;49.010;8.608;2023-06-10T02:06:28;23.80;99.30
23550;DHT22;11953;49.010;8.608;2023-06-10T02:09:16;23.80;99.30
23550;DHT22;11953;49.010;8.608;2023-06-10T02:12:06;23.80;99.30
23550;DHT22;11953;49.010;8.608;2023-06-10T02:14:54;23.80;99.30
23550;DHT22;11953;49.010;8.608;2023-06-10T02:17:40;23.80;99.30
23550;DHT22;11953;49.010;8.608;2023-06-10T02:20:27;23.70;99.30
23550;DHT22;11953;49.010;8.608;2023-06-10T02:23:14;23.80;99.30
23550;DHT22;11953;49.010;8.608;2023-06-10T02:26:01;23.70;99.30
23550;DHT22;11953;49.010;8.608;2023-06-10T02:28:50;23.70;99.30
23550;DHT22;11953;49.010;8.608;2023-06-10T02:31:37;23.70;99.30
23550;DHT22;11953;49.010;8.608;2023-06-10T02:34:25;23.70;99.30
23550;DHT22;11953;49.010;8.608;2023-06-10T02:37:13;23.70;99.30
23550;DHT22;11953;49.010;8.608;2023-06-10T02:40:00;23.70;99.30
23550;DHT22;11953;49.010;8.608;2023-06-10T02:42:50;23.70;99.30
23550;DHT22;11953;49.010;8.608;2023-06-10T02:45:38;23.70;99.20
23550;DHT22;11953;49.010;8.608;2023-06-10T02:48:27;23.70;99.20
23550;DHT22;11953;49.010;8.608;2023-06-10T02:51:16;23.70;99.30
23550;DHT22;11953;49.010;8.608;2023-06-10T02:54:06;23.70;99.40
23550;DHT22;11953;49.010;8.608;2023-06-10T02:56:53;23.70;99.50
23550;DHT22;11953;49.010;8.608;2023-06-10T02:59:44;23.70;99.50
23550;DHT22;11953;49.010;8.608;2023-06-10T03:02:33;23.60;99.40
23550;DHT22;11953;49.010;8.608;2023-06-10T03:05:25;23.60;99.40
23550;DHT22;11953;49.010;8.608;2023-06-10T03:08:14;23.60;99.40
23550;DHT22;11953;49.010;8.608;2023-06-10T03:11:02;23.60;99.40
23550;DHT22;11953;49.010;8.608;2023-06-10T03:13:50;23.60;99.30
23550;DHT22;11953;49.010;8.608;2023-06-10T03:16:38;23.60;99.40
23550;DHT22;11953;49.010;8.608;2023-06-10T03:19:28;23.60;99.40
23550;DHT22;11953;49.010;8.608;2023-06-10T03:22:16;23.60;99.30
23550;DHT22;11953;49.010;8.608;2023-06-10T03:25:13;23.60;99.30
23550;DHT22;11953;49.010;8.608;2023-06-10T03:28:04;23.60;99.40
23550;DHT22;11953;49.010;8.608;2023-06-10T03:30:52;23.60;99.40
23550;DHT22;11953;49.010;8.608;2023-06-10T03:33:42;23.60;99.40
23550;DHT22;11953;49.010;8.608;2023-06-10T03:36:31;23.60;99.30
23550;DHT22;11953;49.010;8.608;2023-06-10T03:39:18;23.60;99.40
23550;DHT22;11953;49.010;8.608;2023-06-10T03:42:06;23.60;99.30
23550;DHT22;11953;49.010;8.608;2023-06-10T03:44:54;23.60;99.40
23550;DHT22;11953;49.010;8.608;2023-06-10T03:47:41;23.60;99.40
23550;DHT22;11953;49.010;8.608;2023-06-10T03:50:31;23.60;99.40
23550;DHT22;11953;49.010;8.608;2023-06-10T03:53:19;23.60;99.40
23550;DHT22;11953;49.010;8.608;2023-06-10T03:56:06;23.60;99.30
23550;DHT22;11953;49.010;8.608;2023-06-10T03:58:53;23.60;99.40
23550;DHT22;11953;49.010;8.608;2023-06-10T04:01:40;23.60;99.40
23550;DHT22;11953;49.010;8.608;2023-06-10T04:04:27;23.50;99.40
23550;DHT22;11953;49.010;8.608;2023-06-10T04:07:14;23.60;99.40
23550;DHT22;11953;49.010;8.608;2023-06-10T04:10:02;23.50;99.40
23550;DHT22;11953;49.010;8.608;2023-06-10T04:12:50;23.60;99.40
23550;DHT22;11953;49.010;8.608;2023-06-10T04:15:37;23.60;99.40
23550;DHT22;11953;49.010;8.608;2023-06-10T04:18:28;23.50;99.40
23550;DHT22;11953;49.010;8.608;2023-06-10T04:21:19;23.50;99.40
23550;DHT22;11953;49.010;8.608;2023-06-10T04:24:07;23.50;99.30
23550;DHT22;11953;49.010;8.608;2023-06-10T04:26:56;23.50;99.30
23550;DHT22;11953;49.010;8.608;2023-06-10T04:29:43;23.50;99.30
23550;DHT22;11953;49.010;8.608;2023-06-10T04:32:30;23.50;99.30
23550;DHT22;11953;49.010;8.608;2023-06-10T04:35:17;23.50;99.30
23550;DHT22;11953;49.010;8.608;2023-06-10T04:38:05;23.50;99.20
23550;DHT22;11953;49.010;8.608;2023-06-10T04:40:52;23.50;99.20
23550;DHT22;11953;49.010;8.608;2023-06-10T04:43:42;23.50;99.30
23550;DHT22;11953;49.010;8.608;2023-06-10T04:46:29;23.50;99.20
23550;DHT22;11953;49.010;8.608;2023-06-10T04:49:17;23.50;99.30
23550;DHT22;11953;49.010;8.608;2023-06-10T04:52:05;23.50;99.30
23550;DHT22;11953;49.010;8.608;2023-06-10T04:54:57;23.60;99.40
23550;DHT22;11953;49.010;8.608;2023-06-10T04:57:44;23.50;99.30
23550;DHT22;11953;49.010;8.608;2023-06-10T05:00:32;23.50;99.20
23550;DHT22;11953;49.010;8.608;2023-06-10T05:03:19;23.50;99.20
23550;DHT22;11953;49.010;8.608;2023-06-10T05:06:06;23.50;99.30
23550;DHT22;11953;49.010;8.608;2023-06-10T05:08:53;23.50;99.30
23550;DHT22;11953;49.010;8.608;2023-06-10T05:11:40;23.50;99.30
23550;DHT22;11953;49.010;8.608;2023-06-10T05:14:27;23.50;99.30
23550;DHT22;11953;49.010;8.608;2023-06-10T05:17:15;23.50;99.30
23550;DHT22;11953;49.010;8.608;2023-06-10T05:20:02;23.50;99.40
23550;DHT22;11953;49.010;8.608;2023-06-10T05:22:49;23.50;99.40
23550;DHT22;11953;49.010;8.608;2023-06-10T05:25:38;23.50;99.30
23550;DHT22;11953;49.010;8.608;2023-06-10T05:28:25;23.50;99.40
23550;DHT22;11953;49.010;8.608;2023-06-10T05:31:12;23.50;99.30
23550;DHT22;11953;49.010;8.608;2023-06-10T05:34:00;23.50;99.30
23550;DHT22;11953;49.010;8.608;2023-06-10T05:36:47;23.50;99.30
23550;DHT22;11953;49.010;8.608;2023-06-10T05:39:35;23.50;99.30
23550;DHT22;11953;49.010;8.608;2023-06-10T05:42:23;23.50;99.20
23550;DHT22;11953;49.010;8.608;2023-06-10T05:45:10;23.50;99.30
23550;DHT22;11953;49.010;8.608;2023-06-10T05:47:57;23.50;99.40
23550;DHT22;11953;49.010;8.608;2023-06-10T05:50:45;23.50;99.40
23550;DHT22;11953;49.010;8.608;2023-06-10T05:53:33;23.50;99.40
23550;DHT22;11953;49.010;8.608;2023-06-10T05:56:20;23.50;99.30
23550;DHT22;11953;49.010;8.608;2023-06-10T05:59:07;23.50;99.40
23550;DHT22;11953;49.010;8.608;2023-06-10T06:01:55;23.50;99.70
23550;DHT22;11953;49.010;8.608;2023-06-10T06:04:41;23.50;99.60
23550;DHT22;11953;49.010;8.608;2023-06-10T06:07:30;23.50;99.70
23550;DHT22;11953;49.010;8.608;2023-06-10T06:10:17;23.50;99.60
23550;DHT22;11953;49.010;8.608;2023-06-10T06:13:04;23.40;99.50
23550;DHT22;11953;49.010;8.608;2023-06-10T06:15:51;23.50;99.60
23550;DHT22;11953;49.010;8.608;2023-06-10T06:18:38;23.50;99.60
23550;DHT22;11953;49.010;8.608;2023-06-10T06:21:25;23.40;99.60
23550;DHT22;11953;49.010;8.608;2023-06-10T06:24:13;23.40;99.60
23550;DHT22;11953;49.010;8.608;2023-06-10T06:27:00;23.40;99.70
23550;DHT22;11953;49.010;8.608;2023-06-10T06:29:47;23.50;99.90
23550;DHT22;11953;49.010;8.608;2023-06-10T06:32:34;23.50;99.90
23550;DHT22;11953;49.010;8.608;2023-06-10T06:35:21;23.50;99.90
23550;DHT22;11953;49.010;8.608;2023-06-10T06:38:08;23.50;99.90
23550;DHT22;11953;49.010;8.608;2023-06-10T06:40:56;23.50;99.90
23550;DHT22;11953;49.010;8.608;2023-06-10T06:43:48;23.50;99.90
23550;DHT22;11953;49.010;8.608;2023-06-10T06:46:41;23.50;99.90
23550;DHT22;11953;49.010;8.608;2023-06-10T06:49:28;23.50;99.90
23550;DHT22;11953;49.010;8.608;2023-06-10T06:52:15;23.50;99.90
23550;DHT22;11953;49.010;8.608;2023-06-10T06:55:02;23.50;99.90
23550;DHT22;11953;49.010;8.608;2023-06-10T06:57:52;23.50;99.90
23550;DHT22;11953;49.010;8.608;2023-06-10T07:00:39;23.50;99.90
23550;DHT22;11953;49.010;8.608;2023-06-10T07:03:26;23.50;99.90
23550;DHT22;11953;49.010;8.608;2023-06-10T07:06:13;23.50;99.90
23550;DHT22;11953;49.010;8.608;2023-06-10T07:09:00;23.50;99.90
23550;DHT22;11953;49.010;8.608;2023-06-10T07:11:47;23.50;99.90
23550;DHT22;11953;49.010;8.608;2023-06-10T07:14:37;23.50;99.90
23550;DHT22;11953;49.010;8.608;2023-06-10T07:17:24;23.50;99.90
23550;DHT22;11953;49.010;8.608;2023-06-10T07:20:12;23.50;99.90
23550;DHT22;11953;49.010;8.608;2023-06-10T07:23:00;23.60;99.90
23550;DHT22;11953;49.010;8.608;2023-06-10T07:25:46;23.60;99.90
23550;DHT22;11953;49.010;8.608;2023-06-10T07:28:33;23.60;99.90
23550;DHT22;11953;49.010;8.608;2023-06-10T07:31:23;23.50;99.90
23550;DHT22;11953;49.010;8.608;2023-06-10T07:34:10;23.50;99.90
23550;DHT22;11953;49.010;8.608;2023-06-10T07:36:57;23.60;99.90
23550;DHT22;11953;49.010;8.608;2023-06-10T07:39:44;23.50;99.90
23550;DHT22;11953;49.010;8.608;2023-06-10T07:42:31;23.50;99.90
23550;DHT22;11953;49.010;8.608;2023-06-10T07:45:18;23.60;99.90
23550;DHT22;11953;49.010;8.608;2023-06-10T07:48:06;23.60;99.90
23550;DHT22;11953;49.010;8.608;2023-06-10T07:50:54;23.60;99.90
23550;DHT22;11953;49.010;8.608;2023-06-10T07:53:40;23.50;99.90
23550;DHT22;11953;49.010;8.608;2023-06-10T07:56:27;23.50;99.90
23550;DHT22;11953;49.010;8.608;2023-06-10T07:59:14;23.60;99.90
23550;DHT22;11953;49.010;8.608;2023-06-10T08:02:00;23.60;99.90
23550;DHT22;11953;49.010;8.608;2023-06-10T08:04:48;23.60;99.90
23550;DHT22;11953;49.010;8.608;2023-06-10T08:07:36;23.60;99.90
23550;DHT22;11953;49.010;8.608;2023-06-10T08:10:22;23.60;99.90
23550;DHT22;11953;49.010;8.608;2023-06-10T08:13:09;23.60;99.90
23550;DHT22;11953;49.010;8.608;2023-06-10T08:15:56;23.60;99.90
23550;DHT22;11953;49.010;8.608;2023-06-10T08:18:43;23.60;99.90
23550;DHT22;11953;49.010;8.608;2023-06-10T08:21:31;23.60;99.90
23550;DHT22;11953;49.010;8.608;2023-06-10T08:24:19;23.60;99.90
23550;DHT22;11953;49.010;8.608;2023-06-10T08:27:06;23.60;99.90
23550;DHT22;11953;49.010;8.608;2023-06-10T08:29:52;23.60;99.90
23550;DHT22;11953;49.010;8.608;2023-06-10T08:32:39;23.60;99.90
23550;DHT22;11953;49.010;8.608;2023-06-10T08:35:26;23.60;99.90
23550;DHT22;11953;49.010;8.608;2023-06-10T08:38:14;23.60;99.90
23550;DHT22;11953;49.010;8.608;2023-06-10T08:41:01;23.60;99.90
23550;DHT22;11953;49.010;8.608;2023-06-10T08:43:57;23.60;99.90
23550;DHT22;11953;49.010;8.608;2023-06-10T08:46:47;23.60;99.90
23550;DHT22;11953;49.010;8.608;2023-06-10T08:49:38;23.60;99.90
23550;DHT22;11953;49.010;8.608;2023-06-10T08:52:29;23.60;99.90
23550;DHT22;11953;49.010;8.608;2023-06-10T08:55:25;23.60;99.90
23550;DHT22;11953;49.010;8.608;2023-06-10T08:58:17;23.60;99.90
23550;DHT22;11953;49.010;8.608;2023-06-10T09:01:04;23.60;99.90
23550;DHT22;11953;49.010;8.608;2023-06-10T09:03:51;23.60;99.90
23550;DHT22;11953;49.010;8.608;2023-06-10T09:06:38;23.60;99.90
23550;DHT22;11953;49.010;8.608;2023-06-10T09:09:28;23.60;99.90
23550;DHT22;11953;49.010;8.608;2023-06-10T09:12:17;23.60;99.90
23550;DHT22;11953;49.010;8.608;2023-06-10T09:15:05;23.60;99.90
23550;DHT22;11953;49.010;8.608;2023-06-10T09:17:52;23.60;99.90
23550;DHT22;11953;49.010;8.608;2023-06-10T09:20:39;23.70;99.90
23550;DHT22;11953;49.010;8.608;2023-06-10T09:23:26;23.60;99.90
23550;DHT22;11953;49.010;8.608;2023-06-10T09:26:13;23.70;99.90
23550;DHT22;11953;49.010;8.608;2023-06-10T09:29:05;23.70;99.90
23550;DHT22;11953;49.010;8.608;2023-06-10T09:31:52;23.70;99.90
23550;DHT22;11953;49.010;8.608;2023-06-10T09:34:39;23.70;99.90
23550;DHT22;11953;49.010;8.608;2023-06-10T09:37:26;23.70;99.90
23550;DHT22;11953;49.010;8.608;2023-06-10T09:40:13;23.70;99.90
23550;DHT22;11953;49.010;8.608;2023-06-10T09:43:00;23.70;99.90
23550;DHT22;11953;49.010;8.608;2023-06-10T09:45:49;23.70;99.90
23550;DHT22;11953;49.010;8.608;2023-06-10T09:48:41;23.80;99.90
23550;DHT22;11953;49.010;8.608;2023-06-10T09:51:28;23.70;99.90
23550;DHT22;11953;49.010;8.608;2023-06-10T09:54:15;23.80;99.90
23550;DHT22;11953;49.010;8.608;2023-06-10T09:57:07;23.80;99.90
23550;DHT22;11953;49.010;8.608;2023-06-10T09:59:55;23.80;99.90
23550;DHT22;11953;49.010;8.608;2023-06-10T10:02:48;23.80;99.90
23550;DHT22;11953;49.010;8.608;2023-06-10T10:05:35;23.80;99.90
23550;DHT22;11953;49.010;8.608;2023-06-10T10:08:22;23.80;99.90
23550;DHT22;11953;49.010;8.608;2023-06-10T10:11:09;23.80;99.90
23550;DHT22;11953;49.010;8.608;2023-06-10T10:13:57;23.80;99.90
23550;DHT22;11953;49.010;8.608;2023-06-10T10:16:45;23.80;99.90
23550;DHT22;11953;49.010;8.608;2023-06-10T10:19:39;23.80;99.90
23550;DHT22;11953;49.010;8.608;2023-06-10T10:22:33;23.80;99.90
23550;DHT22;11953;49.010;8.608;2023-06-10T10:25:24;23.80;99.90
23550;DHT22;11953;49.010;8.608;2023-06-10T10:28:12;23.90;99.90
23550;DHT22;11953;49.010;8.608;2023-06-10T10:31:07;23.80;99.90
23550;DHT22;11953;49.010;8.608;2023-06-10T10:33:58;23.90;99.90
23550;DHT22;11953;49.010;8.608;2023-06-10T10:36:47;23.90;99.90
23550;DHT22;11953;49.010;8.608;2023-06-10T10:39:36;23.80;99.90
23550;DHT22;11953;49.010;8.608;2023-06-10T10:42:23;23.90;99.90
23550;DHT22;11953;49.010;8.608;2023-06-10T10:45:11;23.90;99.90
23550;DHT22;11953;49.010;8.608;2023-06-10T10:48:05;23.90;99.90
23550;DHT22;11953;49.010;8.608;2023-06-10T10:50:56;23.90;99.90
23550;DHT22;11953;49.010;8.608;2023-06-10T10:54:11;23.90;99.90
23550;DHT22;11953;49.010;8.608;2023-06-10T10:57:13;23.90;99.90
23550;DHT22;11953;49.010;8.608;2023-06-10T11:00:00;23.90;99.90
23550;DHT22;11953;49.010;8.608;2023-06-10T11:02:50;23.90;99.90
23550;DHT22;11953;49.010;8.608;2023-06-10T11:05:44;23.90;99.90
23550;DHT22;11953;49.010;8.608;2023-06-10T11:08:49;24.00;99.90
23550;DHT22;11953;49.010;8.608;2023-06-10T11:11:49;24.00;99.90
23550;DHT22;11953;49.010;8.608;2023-06-10T11:14:36;23.90;99.90
23550;DHT22;11953;49.010;8.608;2023-06-10T11:17:25;24.00;99.90
23550;DHT22;11953;49.010;8.608;2023-06-10T11:20:11;24.00;99.90
23550;DHT22;11953;49.010;8.608;2023-06-10T11:23:01;24.00;99.90
23550;DHT22;11953;49.010;8.608;2023-06-10T11:25:50;24.00;99.90
23550;DHT22;11953;49.010;8.608;2023-06-10T11:28:37;24.00;99.90
23550;DHT22;11953;49.010;8.608;2023-06-10T11:31:24;24.10;99.90
23550;DHT22;11953;49.010;8.608;2023-06-10T11:34:12;24.10;99.90
23550;DHT22;11953;49.010;8.608;2023-06-10T11:36:59;24.20;99.90
23550;DHT22;11953;49.010;8.608;2023-06-10T11:39:46;24.30;99.90
23550;DHT22;11953;49.010;8.608;2023-06-10T11:42:38;24.30;99.90
23550;DHT22;11953;49.010;8.608;2023-06-10T11:45:25;24.30;99.90
23550;DHT22;11953;49.010;8.608;2023-06-10T11:48:12;24.30;99.90
23550;DHT22;11953;49.010;8.608;2023-06-10T11:50:59;24.30;99.90
23550;DHT22;11953;49.010;8.608;2023-06-10T11:53:47;24.30;99.90
23550;DHT22;11953;49.010;8.608;2023-06-10T11:56:33;24.30;99.90
23550;DHT22;11953;49.010;8.608;2023-06-10T11:59:27;24.30;99.90
23550;DHT22;11953;49.010;8.608;2023-06-10T12:02:15;24.30;99.90
23550;DHT22;11953;49.010;8.608;2023-06-10T12:05:10;24.40;99.90
23550;DHT22;11953;49.010;8.608;2023-06-10T12:08:11;24.40;99.90
23550;DHT22;11953;49.010;8.608;2023-06-10T12:10:58;24.30;99.90
23550;DHT22;11953;49.010;8.608;2023-06-10T12:13:46;24.40;99.90
23550;DHT22;11953;49.010;8.608;2023-06-10T12:16:36;24.40;99.90
23550;DHT22;11953;49.010;8.608;2023-06-10T12:19:23;24.40;99.90
23550;DHT22;11953;49.010;8.608;2023-06-10T12:22:10;24.40;99.90
23550;DHT22;11953;49.010;8.608;2023-06-10T12:24:58;24.40;99.90
23550;DHT22;11953;49.010;8.608;2023-06-10T12:27:53;24.30;99.90
23550;DHT22;11953;49.010;8.608;2023-06-10T12:30:40;24.40;99.90
23550;DHT22;11953;49.010;8.608;2023-06-10T12:33:28;24.40;99.90
23550;DHT22;11953;49.010;8.608;2023-06-10T12:36:16;24.40;99.90
23550;DHT22;11953;49.010;8.608;2023-06-10T12:39:03;24.40;99.90
23550;DHT22;11953;49.010;8.608;2023-06-10T12:41:51;24.40;99.80
23550;DHT22;11953;49.010;8.608;2023-06-10T12:44:39;24.40;99.80
23550;DHT22;11953;49.010;8.608;2023-06-10T12:47:30;24.50;99.70
23550;DHT22;11953;49.010;8.608;2023-06-10T12:50:19;24.50;99.70
23550;DHT22;11953;49.010;8.608;2023-06-10T12:53:08;24.40;99.60
23550;DHT22;11953;49.010;8.608;2023-06-10T12:55:55;24.50;99.60
23550;DHT22;11953;49.010;8.608;2023-06-10T12:58:43;24.50;99.50
23550;DHT22;11953;49.010;8.608;2023-06-10T13:01:31;24.50;99.40
23550;DHT22;11953;49.010;8.608;2023-06-10T13:04:18;24.50;99.40
23550;DHT22;11953;49.010;8.608;2023-06-10T13:07:06;24.50;99.30
23550;DHT22;11953;49.010;8.608;2023-06-10T13:09:55;24.50;99.30
23550;DHT22;11953;49.010;8.608;2023-06-10T13:12:42;24.50;99.20
23550;DHT22;11953;49.010;8.608;2023-06-10T13:15:33;24.50;99.10
23550;DHT22;11953;49.010;8.608;2023-06-10T13:18:26;24.50;99.00
23550;DHT22;11953;49.010;8.608;2023-06-10T13:21:13;24.60;99.00
23550;DHT22;11953;49.010;8.608;2023-06-10T13:24:02;24.60;98.90
23550;DHT22;11953;49.010;8.608;2023-06-10T13:26:49;24.60;98.80
23550;DHT22;11953;49.010;8.608;2023-06-10T13:29:36;24.60;98.70
23550;DHT22;11953;49.010;8.608;2023-06-10T13:32:23;24.70;98.60
23550;DHT22;11953;49.010;8.608;2023-06-10T13:35:10;24.80;98.40
23550;DHT22;11953;49.010;8.608;2023-06-10T13:37:57;24.90;98.30
23550;DHT22;11953;49.010;8.608;2023-06-10T13:40:44;25.00;98.10
23550;DHT22;11953;49.010;8.608;2023-06-10T13:43:32;25.00;98.10
23550;DHT22;11953;49.010;8.608;2023-06-10T13:46:22;25.10;98.00
23550;DHT22;11953;49.010;8.608;2023-06-10T13:49:09;25.20;97.90
23550;DHT22;11953;49.010;8.608;2023-06-10T13:51:55;25.20;97.80
23550;DHT22;11953;49.010;8.608;2023-06-10T13:54:42;25.30;97.80
23550;DHT22;11953;49.010;8.608;2023-06-10T13:57:30;25.30;97.70
23550;DHT22;11953;49.010;8.608;2023-06-10T14:00:18;25.30;97.60
23550;DHT22;11953;49.010;8.608;2023-06-10T14:03:05;25.40;97.60
23550;DHT22;11953;49.010;8.608;2023-06-10T14:05:52;25.50;97.60
23550;DHT22;11953;49.010;8.608;2023-06-10T14:08:39;25.60;97.70
23550;DHT22;11953;49.010;8.608;2023-06-10T14:11:26;25.60;97.40
23550;DHT22;11953;49.010;8.608;2023-06-10T14:14:15;25.70;98.10
23550;DHT22;11953;49.010;8.608;2023-06-10T14:17:02;25.70;97.20
23550;DHT22;11953;49.010;8.608;2023-06-10T14:19:50;25.60;97.10
23550;DHT22;11953;49.010;8.608;2023-06-10T14:22:37;25.60;97.00
23550;DHT22;11953;49.010;8.608;2023-06-10T14:25:25;25.50;97.20
23550;DHT22;11953;49.010;8.608;2023-06-10T14:28:12;25.40;97.10
23550;DHT22;11953;49.010;8.608;2023-06-10T14:31:00;25.40;97.10
23550;DHT22;11953;49.010;8.608;2023-06-10T14:33:47;25.30;97.00
23550;DHT22;11953;49.010;8.608;2023-06-10T14:36:34;25.30;97.00
23550;DHT22;11953;49.010;8.608;2023-06-10T14:39:22;25.30;97.00
23550;DHT22;11953;49.010;8.608;2023-06-10T14:42:09;25.30;97.00
23550;DHT22;11953;49.010;8.608;2023-06-10T14:44:56;25.30;97.00
23550;DHT22;11953;49.010;8.608;2023-06-10T14:47:44;25.30;96.90
23550;DHT22;11953;49.010;8.608;2023-06-10T14:50:32;25.30;96.90
23550;DHT22;11953;49.010;8.608;2023-06-10T14:53:19;25.20;96.80
23550;DHT22;11953;49.010;8.608;2023-06-10T14:56:06;25.20;96.80
23550;DHT22;11953;49.010;8.608;2023-06-10T14:58:53;25.20;96.70
23550;DHT22;11953;49.010;8.608;2023-06-10T15:01:40;25.20;96.70
23550;DHT22;11953;49.010;8.608;2023-06-10T15:04:28;25.20;96.70
23550;DHT22;11953;49.010;8.608;2023-06-10T15:07:15;25.20;96.70
23550;DHT22;11953;49.010;8.608;2023-06-10T15:10:06;25.20;96.90
23550;DHT22;11953;49.010;8.608;2023-06-10T15:12:53;25.20;96.80
23550;DHT22;11953;49.010;8.608;2023-06-10T15:15:42;25.20;96.70
23550;DHT22;11953;49.010;8.608;2023-06-10T15:18:30;25.20;96.80
23550;DHT22;11953;49.010;8.608;2023-06-10T15:21:19;25.20;97.00
23550;DHT22;11953;49.010;8.608;2023-06-10T15:24:06;25.20;97.20
23550;DHT22;11953;49.010;8.608;2023-06-10T15:26:53;25.20;97.30
23550;DHT22;11953;49.010;8.608;2023-06-10T15:29:40;25.20;97.20
23550;DHT22;11953;49.010;8.608;2023-06-10T15:32:26;25.30;97.10
23550;DHT22;11953;49.010;8.608;2023-06-10T15:35:13;25.20;97.00
23550;DHT22;11953;49.010;8.608;2023-06-10T15:38:02;25.30;97.00
23550;DHT22;11953;49.010;8.608;2023-06-10T15:40:48;25.30;96.90
23550;DHT22;11953;49.010;8.608;2023-06-10T15:43:35;25.30;97.30
23550;DHT22;11953;49.010;8.608;2023-06-10T15:46:23;25.30;96.90
23550;DHT22;11953;49.010;8.608;2023-06-10T15:49:09;25.30;96.80
23550;DHT22;11953;49.010;8.608;2023-06-10T15:51:57;25.30;96.80
23550;DHT22;11953;49.010;8.608;2023-06-10T15:54:45;25.30;96.70
23550;DHT22;11953;49.010;8.608;2023-06-10T15:57:32;25.30;96.60
23550;DHT22;11953;49.010;8.608;2023-06-10T16:00:19;25.40;96.60
23550;DHT22;11953;49.010;8.608;2023-06-10T16:03:07;25.40;96.50
23550;DHT22;11953;49.010;8.608;2023-06-10T16:05:54;25.40;96.50
23550;DHT22;11953;49.010;8.608;2023-06-10T16:08:40;25.40;96.50
23550;DHT22;11953;49.010;8.608;2023-06-10T16:11:28;25.40;96.40
23550;DHT22;11953;49.010;8.608;2023-06-10T16:14:15;25.50;96.40
23550;DHT22;11953;49.010;8.608;2023-06-10T16:17:02;25.50;96.50
23550;DHT22;11953;49.010;8.608;2023-06-10T16:19:49;25.50;96.20
23550;DHT22;11953;49.010;8.608;2023-06-10T16:22:36;25.60;95.90
23550;DHT22;11953;49.010;8.608;2023-06-10T16:25:24;25.60;95.90
23550;DHT22;11953;49.010;8.608;2023-06-10T16:28:12;25.60;95.80
23550;DHT22;11953;49.010;8.608;2023-06-10T16:30:59;25.60;95.40
23550;DHT22;11953;49.010;8.608;2023-06-10T16:33:48;25.70;95.30
23550;DHT22;11953;49.010;8.608;2023-06-10T16:36:35;25.70;95.50
23550;DHT22;11953;49.010;8.608;2023-06-10T16:39:21;25.70;95.40
23550;DHT22;11953;49.010;8.608;2023-06-10T16:42:08;25.70;95.30
23550;DHT22;11953;49.010;8.608;2023-06-10T16:44:57;25.70;95.10
23550;DHT22;11953;49.010;8.608;2023-06-10T16:47:46;25.70;95.10
23550;DHT22;11953;49.010;8.608;2023-06-10T16:50:33;25.80;95.10
23550;DHT22;11953;49.010;8.608;2023-06-10T16:53:20;25.80;95.10
23550;DHT22;11953;49.010;8.608;2023-06-10T16:56:07;25.80;95.00
23550;DHT22;11953;49.010;8.608;2023-06-10T16:58:53;25.80;95.00
23550;DHT22;11953;49.010;8.608;2023-06-10T17:01:42;25.80;94.60
23550;DHT22;11953;49.010;8.608;2023-06-10T17:04:29;25.80;94.40
23550;DHT22;11953;49.010;8.608;2023-06-10T17:07:16;25.90;94.80
23550;DHT22;11953;49.010;8.608;2023-06-10T17:10:04;25.90;94.90
23550;DHT22;11953;49.010;8.608;2023-06-10T17:12:51;25.90;94.80
23550;DHT22;11953;49.010;8.608;2023-06-10T17:15:37;25.90;94.80
23550;DHT22;11953;49.010;8.608;2023-06-10T17:18:25;25.90;94.70
23550;DHT22;11953;49.010;8.608;2023-06-10T17:21:12;25.90;94.80
23550;DHT22;11953;49.010;8.608;2023-06-10T17:23:59;26.00;94.70
23550;DHT22;11953;49.010;8.608;2023-06-10T17:26:47;26.00;94.80
23550;DHT22;11953;49.010;8.608;2023-06-10T17:29:34;26.00;94.70
23550;DHT22;11953;49.010;8.608;2023-06-10T17:32:21;26.00;94.70
23550;DHT22;11953;49.010;8.608;2023-06-10T17:35:10;26.00;94.70
23550;DHT22;11953;49.010;8.608;2023-06-10T17:37:58;26.00;94.60
23550;DHT22;11953;49.010;8.608;2023-06-10T17:40:45;26.00;94.80